createdAt,value
2022-09-21T00:02:12.493Z,100044.00
2022-09-21T00:04:44.110Z,100036.66
2022-09-21T00:07:15.731Z,100045.53
2022-09-21T00:09:47.370Z,100046.50
2022-09-21T00:12:19.723Z,100045.16
2022-09-21T00:14:51.312Z,100041.81
2022-09-21T00:17:22.942Z,100048.06
2022-09-21T00:19:54.558Z,100048.88
2022-09-21T00:22:26.217Z,100048.06
2022-09-21T00:24:57.837Z,100039.59
2022-09-21T00:27:30.959Z,100047.38
2022-09-21T00:30:07.617Z,100044.03
2022-09-21T00:32:42.071Z,100036.72
2022-09-21T00:35:13.668Z,100042.66
2022-09-21T00:37:45.290Z,100044.44
2022-09-21T00:40:17.361Z,100046.25
2022-09-21T00:42:48.998Z,100045.28
2022-09-21T00:45:23.814Z,100040.97
2022-09-21T00:47:55.702Z,100043.63
2022-09-21T00:50:27.514Z,100043.78
2022-09-21T00:52:59.323Z,100052.53
2022-09-21T00:55:43.318Z,100050.69
2022-09-21T00:58:20.653Z,100052.22
2022-09-21T01:00:56.897Z,100058.31
2022-09-21T01:03:30.570Z,100056.66
2022-09-21T01:06:03.070Z,100064.44
2022-09-21T01:08:35.158Z,100060.00
2022-09-21T01:11:48.261Z,100064.13
2022-09-21T01:14:26.570Z,100062.31
2022-09-21T01:17:24.566Z,100061.88
2022-09-21T01:20:18.017Z,100065.78
2022-09-21T01:23:04.854Z,100069.78
2022-09-21T01:26:08.093Z,100069.66
2022-09-21T01:29:10.900Z,100068.13
2022-09-21T01:32:23.733Z,100074.38
2022-09-21T01:35:07.221Z,100068.97
2022-09-21T01:37:45.368Z,100067.69
2022-09-21T01:40:31.966Z,100067.56
2022-09-21T01:43:09.493Z,100070.88
2022-09-21T01:45:47.975Z,100068.91
2022-09-21T01:48:22.327Z,100066.97
2022-09-21T01:50:57.515Z,100069.47
2022-09-21T01:53:37.483Z,100063.91
2022-09-21T01:56:18.394Z,100070.53
2022-09-21T01:59:00.294Z,100071.22
2022-09-21T02:01:38.904Z,100068.91
2022-09-21T02:04:13.552Z,100063.47
2022-09-21T02:06:47.136Z,100065.13
2022-09-21T02:09:19.859Z,100069.44
2022-09-21T02:11:51.488Z,100066.66
2022-09-21T02:14:25.930Z,100071.94
2022-09-21T02:17:06.423Z,100069.97
2022-09-21T02:20:03.134Z,100067.50
2022-09-21T02:22:54.910Z,100067.75
2022-09-21T02:25:47.406Z,100066.25
2022-09-21T02:28:26.980Z,100073.19
2022-09-21T02:31:35.152Z,100071.09
2022-09-21T02:34:21.902Z,100065.38
2022-09-21T02:37:06.886Z,100066.91
2022-09-21T02:39:54.881Z,100068.41
2022-09-21T02:42:31.317Z,100066.75
2022-09-21T02:45:14.628Z,100065.78
2022-09-21T02:48:01.389Z,100064.78
2022-09-21T02:50:48.709Z,100066.31
2022-09-21T02:53:25.688Z,100077.53
2022-09-21T02:56:02.981Z,100075.75
2022-09-21T02:58:38.170Z,100066.03
2022-09-21T03:01:15.289Z,100076.56
2022-09-21T03:03:46.991Z,100077.53
2022-09-21T03:06:21.755Z,100079.06
2022-09-21T03:08:53.199Z,100081.72
2022-09-21T03:11:25.720Z,100078.38
2022-09-21T03:13:57.400Z,100085.47
2022-09-21T03:16:29.333Z,100088.94
2022-09-21T03:19:01.076Z,100092.28
2022-09-21T03:21:32.747Z,100091.97
2022-09-21T03:24:07.225Z,100097.25
2022-09-21T03:26:40.829Z,100098.91
2022-09-21T03:29:12.944Z,100098.78
2022-09-21T03:31:47.401Z,100096.97
2022-09-21T03:34:21.874Z,100100.56
2022-09-21T03:36:53.584Z,100098.06
2022-09-21T03:39:25.198Z,100103.53
2022-09-21T03:41:56.965Z,100103.53
2022-09-21T03:44:31.272Z,100101.53
2022-09-21T03:47:03.212Z,100101.53
2022-09-21T03:49:35.130Z,100099.75
2022-09-21T03:52:06.778Z,100107.53
2022-09-21T03:54:38.422Z,100104.88
2022-09-21T03:57:10.041Z,100108.63
2022-09-21T03:59:42.135Z,100113.91
2022-09-21T04:02:13.830Z,100116.53
2022-09-21T04:04:45.759Z,100119.03
2022-09-21T04:07:17.458Z,100119.19
2022-09-21T04:09:49.090Z,100122.78
2022-09-21T04:12:23.729Z,100121.00
2022-09-21T04:14:55.348Z,100110.28
2022-09-21T04:17:27.886Z,100122.38
2022-09-21T04:20:01.226Z,100119.88
2022-09-21T04:22:32.817Z,100123.50
2022-09-21T04:25:05.486Z,100116.84
2022-09-21T04:27:37.176Z,100121.28
2022-09-21T04:30:11.350Z,100124.19
2022-09-21T04:32:43.622Z,100120.91
2022-09-21T04:35:15.294Z,100130.31
2022-09-21T04:37:46.870Z,100130.03
2022-09-21T04:40:18.529Z,100130.56
2022-09-21T04:42:56.056Z,100129.28
2022-09-21T04:45:27.731Z,100133.06
2022-09-21T04:47:59.330Z,100128.75
2022-09-21T04:50:30.988Z,100134.03
2022-09-21T04:53:08.016Z,100131.41
2022-09-21T04:55:40.288Z,100140.84
2022-09-21T04:58:11.854Z,100145.00
2022-09-21T05:00:44.022Z,100141.25
2022-09-21T05:03:15.682Z,100145.69
2022-09-21T05:05:52.417Z,100144.84
2022-09-21T05:08:44.869Z,100146.38
2022-09-21T05:11:23.879Z,100151.34
2022-09-21T05:13:58.284Z,100154.00
2022-09-21T05:16:29.905Z,100149.56
2022-09-21T05:19:01.507Z,100153.88
2022-09-21T05:21:33.447Z,100158.31
2022-09-21T05:24:05.351Z,100153.03
2022-09-21T05:26:37.406Z,100159.00
2022-09-21T05:29:09.272Z,100158.84
2022-09-21T05:32:01.419Z,100166.75
2022-09-21T05:34:54.018Z,100170.09
2022-09-21T05:37:39.139Z,100176.06
2022-09-21T05:40:11.971Z,100176.72
2022-09-21T05:42:44.305Z,100177.56
2022-09-21T05:45:17.978Z,100178.41
2022-09-21T05:48:25.220Z,100184.22
2022-09-21T05:51:27.118Z,100193.78
2022-09-21T05:54:03.476Z,100183.41
2022-09-21T05:56:53.842Z,100192.56
2022-09-21T05:59:41.466Z,100188.69
2022-09-21T06:02:44.254Z,100185.94
2022-09-21T06:05:16.700Z,100185.94
2022-09-21T06:07:51.202Z,100192.88
2022-09-21T06:10:24.770Z,100198.41
2022-09-21T06:12:56.640Z,100193.41
2022-09-21T06:15:28.559Z,100194.78
2022-09-21T06:18:00.263Z,100190.72
2022-09-21T06:20:32.180Z,100200.16
2022-09-21T06:23:10.557Z,100197.94
2022-09-21T06:25:42.277Z,100205.25
2022-09-21T06:28:14.030Z,100204.25
2022-09-21T06:30:54.465Z,100203.41
2022-09-21T06:33:26.374Z,100207.47
2022-09-21T06:36:02.270Z,100216.16
2022-09-21T06:38:35.544Z,100211.94
2022-09-21T06:41:07.231Z,100203.94
2022-09-21T06:43:38.823Z,100206.00
2022-09-21T06:46:10.463Z,100207.22
2022-09-21T06:48:42.139Z,100214.47
2022-09-21T06:51:13.796Z,100212.50
2022-09-21T06:53:45.517Z,100211.44
2022-09-21T06:56:17.172Z,100206.94
2022-09-21T06:58:48.828Z,100213.66
2022-09-21T07:01:20.975Z,100202.53
2022-09-21T07:03:54.014Z,100209.72
2022-09-21T07:06:25.717Z,100213.09
2022-09-21T07:11:50.129Z,100212.78
2022-09-21T07:14:22.536Z,100213.84
2022-09-21T07:16:54.180Z,100214.09
2022-09-21T07:19:25.883Z,100215.63
2022-09-21T07:21:57.578Z,100217.53
2022-09-21T07:24:29.209Z,100224.09
2022-09-21T07:27:04.188Z,100217.03
2022-09-21T07:29:37.028Z,100223.41
2022-09-21T07:32:10.001Z,100215.19
2022-09-21T07:34:41.642Z,100212.28
2022-09-21T07:37:14.613Z,100221.56
2022-09-21T07:39:46.197Z,100221.72
2022-09-21T07:42:20.062Z,100217.97
2022-09-21T07:45:03.150Z,100217.34
2022-09-21T07:47:35.433Z,100214.91
2022-09-21T07:50:10.010Z,100215.97
2022-09-21T07:52:41.532Z,100210.00
2022-09-21T07:55:13.606Z,100218.66
2022-09-21T07:58:03.791Z,100214.34
2022-09-21T08:00:36.360Z,100219.97
2022-09-21T08:03:08.100Z,100218.03
2022-09-21T08:05:42.341Z,100221.91
2022-09-21T08:08:15.564Z,100221.69
2022-09-21T08:10:53.003Z,100226.34
2022-09-21T08:13:30.192Z,100221.97
2022-09-21T08:16:03.154Z,100219.25
2022-09-21T08:18:39.621Z,100221.06
2022-09-21T08:21:13.669Z,100217.00
2022-09-21T08:23:46.011Z,100217.75
2022-09-21T08:26:20.003Z,100213.00
2022-09-21T08:28:53.412Z,100215.00
2022-09-21T08:31:25.797Z,100221.50
2022-09-21T08:33:57.755Z,100220.88
2022-09-21T08:36:31.478Z,100221.66
2022-09-21T08:39:07.399Z,100234.00
2022-09-21T08:42:00.486Z,100225.06
2022-09-21T08:44:47.067Z,100228.94
2022-09-21T08:47:45.040Z,100236.09
2022-09-21T08:50:22.561Z,100240.06
2022-09-21T08:53:01.906Z,100232.84
2022-09-21T08:55:34.075Z,100230.75
2022-09-21T08:58:18.585Z,100237.50
2022-09-21T09:01:12.645Z,100238.78
2022-09-21T09:04:14.746Z,100243.16
2022-09-21T09:06:58.149Z,100243.22
2022-09-21T09:09:55.843Z,100243.03
2022-09-21T09:13:08.597Z,100242.88
2022-09-21T09:16:01.638Z,100240.38
2022-09-21T09:19:00.334Z,100243.63
2022-09-21T09:21:40.563Z,100239.94
2022-09-21T09:24:24.320Z,100244.56
2022-09-21T09:27:04.378Z,100239.72
2022-09-21T09:29:50.883Z,100238.97
2022-09-21T09:32:30.704Z,100230.69
2022-09-21T09:35:28.035Z,100237.25
2022-09-21T09:38:20.766Z,100239.78
2022-09-21T09:41:19.633Z,100236.28
2022-09-21T09:44:21.939Z,100235.06
2022-09-21T09:46:59.638Z,100222.84
2022-09-21T09:50:01.883Z,100230.50
2022-09-21T09:52:34.070Z,100225.94
2022-09-21T09:55:24.825Z,100219.66
2022-09-21T09:58:00.042Z,100216.34
2022-09-21T10:00:31.693Z,100224.16
2022-09-21T10:03:18.230Z,100218.72
2022-09-21T10:05:51.009Z,100217.72
2022-09-21T10:08:48.781Z,100220.13
2022-09-21T10:11:34.646Z,100208.03
2022-09-21T10:14:13.867Z,100212.78
2022-09-21T10:16:45.802Z,100207.56
2022-09-21T10:19:24.344Z,100207.88
2022-09-21T10:21:58.696Z,100206.75
2022-09-21T10:24:37.335Z,100195.63
2022-09-21T10:27:19.745Z,100204.53
2022-09-21T10:29:51.507Z,100197.47
2022-09-21T10:32:27.698Z,100203.69
2022-09-21T10:35:08.046Z,100193.47
2022-09-21T10:37:53.690Z,100200.53
2022-09-21T10:40:27.335Z,100197.47
2022-09-21T10:43:00.468Z,100202.00
2022-09-21T10:45:37.071Z,100196.72
2022-09-21T10:48:18.280Z,100201.41
2022-09-21T10:50:51.973Z,100201.28
2022-09-21T10:53:30.660Z,100188.88
2022-09-21T10:56:22.114Z,100190.50
2022-09-21T10:59:23.779Z,100184.59
2022-09-21T11:01:58.246Z,100184.03
2022-09-21T11:04:36.848Z,100175.06
2022-09-21T11:07:20.520Z,100175.81
2022-09-21T11:10:02.260Z,100175.16
2022-09-21T11:12:39.850Z,100173.88
2022-09-21T11:15:26.426Z,100185.06
2022-09-21T11:18:13.044Z,100177.16
2022-09-21T11:21:09.553Z,100176.19
2022-09-21T11:23:55.764Z,100181.66
2022-09-21T11:29:32.296Z,100177.88
2022-09-21T11:32:26.250Z,100178.69
2022-09-21T11:34:57.805Z,100166.03
2022-09-21T11:37:49.609Z,100166.91
2022-09-21T11:40:53.124Z,100172.44
2022-09-21T11:43:27.797Z,100172.00
2022-09-21T11:46:07.128Z,100159.72
2022-09-21T11:48:47.486Z,100154.44
2022-09-21T11:51:38.795Z,100146.34
2022-09-21T11:54:16.344Z,100144.72
2022-09-21T11:57:01.430Z,100140.41
2022-09-21T12:00:04.190Z,100129.69
2022-09-21T12:03:04.513Z,100144.72
2022-09-21T12:05:58.928Z,100130.00
2022-09-21T12:09:08.871Z,100132.72
2022-09-21T12:11:48.780Z,100133.78
2022-09-21T12:14:43.334Z,100127.41
2022-09-21T12:17:24.411Z,100132.72
2022-09-21T12:20:26.645Z,100129.34
2022-09-21T12:23:38.682Z,100133.50
2022-09-21T12:26:15.620Z,100131.47
2022-09-21T12:28:53.703Z,100132.75
2022-09-21T12:31:36.389Z,100131.25
2022-09-21T12:34:20.545Z,100124.22
2022-09-21T12:37:07.958Z,100130.19
2022-09-21T12:39:47.111Z,100130.50
2022-09-21T12:42:38.518Z,100130.75
2022-09-21T12:45:19.124Z,100126.69
2022-09-21T12:48:20.201Z,100127.28
2022-09-21T12:51:18.203Z,100132.97
2022-09-21T12:53:53.367Z,100132.59
2022-09-21T12:56:37.503Z,100133.84
2022-09-21T12:59:50.108Z,100135.06
2022-09-21T13:02:33.285Z,100130.34
2022-09-21T13:05:11.958Z,100142.56
2022-09-21T13:08:08.549Z,100140.59
2022-09-21T13:11:05.022Z,100150.25
2022-09-21T13:13:53.901Z,100143.53
2022-09-21T13:16:33.009Z,100141.34
2022-09-21T13:19:16.996Z,100150.22
2022-09-21T13:22:22.717Z,100136.84
2022-09-21T13:25:06.140Z,100140.88
2022-09-21T13:28:01.227Z,100138.69
2022-09-21T13:30:37.843Z,100129.22
2022-09-21T13:33:20.713Z,100122.63
2022-09-21T13:36:02.013Z,100124.44
2022-09-21T13:38:40.151Z,100124.88
2022-09-21T13:41:17.956Z,100124.41
2022-09-21T13:44:01.240Z,100124.91
2022-09-21T13:46:35.942Z,100125.50
2022-09-21T13:49:16.284Z,100129.53
2022-09-21T13:52:08.657Z,100121.63
2022-09-21T13:54:52.274Z,100124.53
2022-09-21T13:57:36.963Z,100126.72
2022-09-21T14:00:12.475Z,100118.66
2022-09-21T14:02:58.709Z,100111.66
2022-09-21T14:05:33.362Z,100108.88
2022-09-21T14:08:06.823Z,100116.44
2022-09-21T14:10:38.626Z,100114.81
2022-09-21T14:13:26.871Z,100107.31
2022-09-21T14:16:37.433Z,100103.81
2022-09-21T14:19:18.104Z,100103.34
2022-09-21T14:22:07.701Z,100103.97
2022-09-21T14:24:52.211Z,100097.94
2022-09-21T14:27:31.739Z,100109.03
2022-09-21T14:30:22.160Z,100102.53
2022-09-21T14:33:02.129Z,100107.63
2022-09-21T14:35:38.361Z,100115.16
2022-09-21T14:38:24.882Z,100112.00
2022-09-21T14:41:01.868Z,100123.94
2022-09-21T14:43:37.451Z,100125.81
2022-09-21T14:46:16.656Z,100125.53
2022-09-21T14:49:11.110Z,100137.25
2022-09-21T14:52:04.367Z,100135.94
2022-09-21T14:55:15.849Z,100135.03
2022-09-21T14:58:04.807Z,100142.06
2022-09-21T15:00:50.274Z,100134.72
2022-09-21T15:03:40.747Z,100127.41
2022-09-21T15:06:43.089Z,100120.63
2022-09-21T15:10:04.333Z,100121.94
2022-09-21T15:12:46.703Z,100120.59
2022-09-21T15:15:28.466Z,100116.13
2022-09-21T15:18:01.944Z,100112.31
2022-09-21T15:20:36.712Z,100104.22
2022-09-21T15:23:19.593Z,100109.34
2022-09-21T15:26:09.272Z,100111.81
2022-09-21T15:29:08.841Z,100116.19
2022-09-21T15:31:42.281Z,100113.84
2022-09-21T15:34:15.289Z,100110.53
2022-09-21T15:36:50.944Z,100120.69
2022-09-21T15:39:30.335Z,100110.06
2022-09-21T15:42:07.652Z,100106.03
2022-09-21T15:44:39.538Z,100111.50
2022-09-21T15:47:13.108Z,100112.78
2022-09-21T15:49:47.031Z,100107.63
2022-09-21T15:52:34.311Z,100104.81
2022-09-21T15:55:21.545Z,100107.47
2022-09-21T15:57:58.833Z,100113.97
2022-09-21T16:00:35.196Z,100110.00
2022-09-21T16:03:17.214Z,100115.38
2022-09-21T16:05:54.485Z,100108.72
2022-09-21T16:08:35.187Z,100111.75
2022-09-21T16:11:26.356Z,100107.94
2022-09-21T16:14:42.805Z,100107.44
2022-09-21T16:17:16.952Z,100105.44
2022-09-21T16:19:51.261Z,100112.06
2022-09-21T16:22:29.380Z,100122.06
2022-09-21T16:25:01.776Z,100125.03
2022-09-21T16:27:33.569Z,100124.56
2022-09-21T16:30:06.436Z,100116.09
2022-09-21T16:32:38.155Z,100117.44
2022-09-21T16:35:31.435Z,100122.44
2022-09-21T16:38:03.106Z,100122.13
2022-09-21T16:40:34.814Z,100118.50
2022-09-21T16:43:07.134Z,100123.16
2022-09-21T16:45:40.034Z,100126.97
2022-09-21T16:48:13.188Z,100126.47
2022-09-21T16:50:52.133Z,100128.66
2022-09-21T16:53:23.771Z,100129.50
2022-09-21T16:55:55.631Z,100134.31
2022-09-21T16:58:29.381Z,100125.38
2022-09-21T17:01:01.256Z,100125.19
2022-09-21T17:03:34.804Z,100131.84
2022-09-21T17:06:17.618Z,100135.34
2022-09-21T17:08:49.854Z,100136.00
2022-09-21T17:11:21.492Z,100136.66
2022-09-21T17:13:59.595Z,100136.66
2022-09-21T17:16:31.200Z,100136.63
2022-09-21T17:19:03.669Z,100133.13
2022-09-21T17:21:35.463Z,100138.94
2022-09-21T17:24:07.468Z,100143.59
2022-09-21T17:26:39.389Z,100145.56
2022-09-21T17:29:26.952Z,100152.53
2022-09-21T17:31:58.714Z,100147.03
2022-09-21T17:34:32.326Z,100149.69
2022-09-21T17:37:04.089Z,100151.00
2022-09-21T17:39:36.254Z,100161.78
2022-09-21T17:42:21.275Z,100166.44
2022-09-21T17:44:59.689Z,100159.28
2022-09-21T17:47:33.623Z,100156.28
2022-09-21T17:50:14.467Z,100162.09
2022-09-21T17:53:05.073Z,100155.13
2022-09-21T17:55:38.737Z,100162.91
2022-09-21T17:58:24.406Z,100161.09
2022-09-21T18:01:22.686Z,100166.75
2022-09-21T18:03:54.919Z,100160.91
2022-09-21T18:06:27.111Z,100170.03
2022-09-21T18:08:58.927Z,100170.34
2022-09-21T18:11:45.018Z,100168.03
2022-09-21T18:14:28.698Z,100172.66
2022-09-21T18:17:29.438Z,100171.13
2022-09-21T18:20:24.357Z,100179.03
2022-09-21T18:23:12.566Z,100169.75
2022-09-21T18:25:48.686Z,100182.81
2022-09-21T18:28:40.705Z,100182.59
2022-09-21T18:31:47.991Z,100183.59
2022-09-21T18:34:51.119Z,100191.53
2022-09-21T18:37:34.566Z,100197.00
2022-09-21T18:40:31.709Z,100189.22
2022-09-21T18:43:15.497Z,100193.53
2022-09-21T18:45:54.815Z,100196.19
2022-09-21T18:48:51.157Z,100194.53
2022-09-21T18:51:51.029Z,100191.50
2022-09-21T18:54:28.673Z,100190.47
2022-09-21T18:57:00.661Z,100196.25
2022-09-21T18:59:32.494Z,100200.03
2022-09-21T19:02:09.733Z,100195.22
2022-09-21T19:04:45.489Z,100195.69
2022-09-21T19:07:42.137Z,100198.78
2022-09-21T19:10:25.501Z,100199.38
2022-09-21T19:13:02.243Z,100198.84
2022-09-21T19:15:59.017Z,100186.25
2022-09-21T19:18:52.320Z,100192.69
2022-09-21T19:21:39.457Z,100190.19
2022-09-21T19:24:35.960Z,100197.06
2022-09-21T19:27:16.165Z,100192.91
2022-09-21T19:29:50.809Z,100193.75
2022-09-21T19:32:45.689Z,100189.28
2022-09-21T19:35:25.273Z,100185.50
2022-09-21T19:38:04.009Z,100183.38
2022-09-21T19:40:39.258Z,100188.19
2022-09-21T19:43:43.289Z,100189.25
2022-09-21T19:46:31.127Z,100185.47
2022-09-21T19:49:25.217Z,100183.66
2022-09-21T19:52:00.855Z,100176.56
2022-09-21T19:54:53.977Z,100182.38
2022-09-21T19:57:44.496Z,100188.50
2022-09-21T20:00:17.590Z,100186.69
2022-09-21T20:03:13.943Z,100189.94
2022-09-21T20:05:58.585Z,100185.41
2022-09-21T20:08:48.924Z,100179.91
2022-09-21T20:11:50.569Z,100181.72
2022-09-21T20:14:44.066Z,100187.19
2022-09-21T20:17:30.299Z,100181.88
2022-09-21T20:20:22.338Z,100172.28
2022-09-21T20:22:54.839Z,100183.84
2022-09-21T20:25:35.233Z,100179.69
2022-09-21T20:28:07.314Z,100171.09
2022-09-21T20:30:40.063Z,100168.72
2022-09-21T20:33:15.232Z,100170.88
2022-09-21T20:35:46.844Z,100174.63
2022-09-21T20:38:18.550Z,100174.63
2022-09-21T20:40:53.367Z,100177.75
2022-09-21T20:43:27.936Z,100179.06
2022-09-21T20:46:03.708Z,100174.22
2022-09-21T20:48:37.032Z,100172.19
2022-09-21T20:51:10.900Z,100176.94
2022-09-21T20:53:42.537Z,100173.91
2022-09-21T20:56:16.128Z,100175.03
2022-09-21T20:58:47.725Z,100186.91
2022-09-21T21:01:19.440Z,100181.38
2022-09-21T21:03:51.353Z,100187.81
2022-09-21T21:06:23.246Z,100190.63
2022-09-21T21:08:54.899Z,100198.03
2022-09-21T21:11:28.070Z,100192.03
2022-09-21T21:13:59.682Z,100191.34
2022-09-21T21:16:31.438Z,100188.06
2022-09-21T21:19:03.764Z,100188.34
2022-09-21T21:21:35.937Z,100191.44
2022-09-21T21:24:26.265Z,100190.75
2022-09-21T21:27:02.206Z,100193.38
2022-09-21T21:29:35.194Z,100192.72
2022-09-21T21:32:06.890Z,100186.75
2022-09-21T21:34:38.766Z,100187.84
2022-09-21T21:37:12.600Z,100188.16
2022-09-21T21:39:44.431Z,100182.88
2022-09-21T21:42:16.071Z,100187.47
2022-09-21T21:44:50.696Z,100174.56
2022-09-21T21:50:13.998Z,100178.78
2022-09-21T21:52:45.661Z,100181.56
2022-09-21T21:55:17.271Z,100174.78
2022-09-21T21:57:48.956Z,100183.00
2022-09-21T22:00:20.637Z,100191.06
2022-09-21T22:02:52.318Z,100186.22
2022-09-21T22:05:23.948Z,100187.75
2022-09-21T22:07:55.571Z,100189.25
2022-09-21T22:10:28.150Z,100182.16
2022-09-21T22:12:59.778Z,100190.06
2022-09-21T22:15:33.990Z,100178.00
2022-09-21T22:18:07.653Z,100178.00
2022-09-21T22:20:40.556Z,100172.72
2022-09-21T22:23:13.854Z,100169.25
2022-09-21T22:25:45.478Z,100171.91
2022-09-21T22:28:17.143Z,100169.78
2022-09-21T22:30:49.832Z,100172.16
2022-09-21T22:33:21.646Z,100164.75
2022-09-21T22:35:53.251Z,100164.59
2022-09-21T22:38:24.919Z,100168.91
2022-09-21T22:40:56.513Z,100158.16
2022-09-21T22:43:28.139Z,100158.88
2022-09-21T22:46:00.017Z,100155.25
2022-09-21T22:48:31.748Z,100149.81
2022-09-21T22:51:04.422Z,100145.34
2022-09-21T22:53:36.114Z,100139.25
2022-09-21T22:56:17.284Z,100138.44
2022-09-21T22:58:51.222Z,100140.91
2022-09-21T23:01:33.540Z,100138.13
2022-09-21T23:04:10.843Z,100135.78
2022-09-21T23:06:45.235Z,100137.88
2022-09-21T23:09:21.364Z,100137.03
2022-09-21T23:11:55.614Z,100137.59
2022-09-21T23:14:27.265Z,100139.25
2022-09-21T23:16:59.152Z,100136.44
2022-09-21T23:19:31.331Z,100135.47
2022-09-21T23:22:03.444Z,100126.06
2022-09-21T23:24:35.046Z,100119.25
2022-09-21T23:27:06.668Z,100118.72
2022-09-21T23:29:38.291Z,100126.47
2022-09-21T23:32:09.945Z,100126.19
2022-09-21T23:34:41.624Z,100121.88
2022-09-21T23:37:13.262Z,100129.94
2022-09-21T23:39:44.914Z,100133.41
2022-09-21T23:42:17.016Z,100124.53
2022-09-21T23:44:48.643Z,100135.09
2022-09-21T23:47:20.318Z,100148.44
2022-09-21T23:49:52.251Z,100148.06
2022-09-21T23:52:24.175Z,100149.47
2022-09-21T23:54:55.779Z,100146.06
2022-09-21T23:57:27.415Z,100135.22
2022-09-21T23:59:59.022Z,100138.22
